Rodney E. Settoon — WDH5388 — position and weather

sailwx.info

Track history (hours):
 
Tides and Currents Weather Stations Pressure Air Temp Water Temp Dewpoint Dewpoint Depression Visibility Wind Speed Wind Dir Waves Ship Positions

Rodney E. Settoon

Owner: Settoon Towing, L.L.C., Houma, LA. More information available from US FCC via Universal Licensing System and Coast Guard Vessel Documentation Center.

Last reported at 2017-Sep-20 05:05 UTC. Time now 2017-Sep-21 12:10 UTC.
Position N 29°33' W 090°25'.

Type: Towing. MMSI: 367627470.

Date/timePositionNaut miles runAvg speedWind from/ knotsBaromVisibWave heightAir tempDewpointWater temp
2017-Sep-20 05:05N 29°33' W 090°25'2 6.8
2017-Sep-20 04:51N 29°33' W 090°27'2 6.8
2017-Sep-20 04:30N 29°34' W 090°29'3 6.9
2017-Sep-20 04:00N 29°34' W 090°33'3 6.7
2017-Sep-20 03:30N 29°35' W 090°37'3 6.0
2017-Sep-20 03:00N 29°36' W 090°40'2 4.5
2017-Sep-20 02:30N 29°36' W 090°43'1 1.8
2017-Sep-20 02:00N 29°35' W 090°43'0 0.0
2017-Sep-20 01:30N 29°35' W 090°43'1 2.1
2017-Sep-20 01:00N 29°34' W 090°44'3 6.3
2017-Sep-20 00:30N 29°32' W 090°47'4 7.2
2017-Sep-20 00:00N 29°32' W 090°51'  
Track history (hours):
 
Tides and Currents Weather Stations Pressure Air Temp Water Temp Dewpoint Dewpoint Depression Visibility Wind Speed Wind Dir Waves Ship Positions

Rodney E. Settoon

Owner: Settoon Towing, L.L.C., Houma, LA. More information available from US FCC via Universal Licensing System and Coast Guard Vessel Documentation Center.

Last reported at 2017-Sep-20 05:05 UTC. Time now 2017-Sep-21 12:10 UTC.
Position N 29°33' W 090°25'.

Type: Towing. MMSI: 367627470.

Date/timePositionNaut miles runAvg speedWind from/ knotsBaromVisibWave heightAir tempDewpointWater temp
2017-Sep-20 05:05N 29°33' W 090°25'2 6.8
2017-Sep-20 04:51N 29°33' W 090°27'2 6.8
2017-Sep-20 04:30N 29°34' W 090°29'3 6.9
2017-Sep-20 04:00N 29°34' W 090°33'3 6.7
2017-Sep-20 03:30N 29°35' W 090°37'3 6.0
2017-Sep-20 03:00N 29°36' W 090°40'2 4.5
2017-Sep-20 02:30N 29°36' W 090°43'1 1.8
2017-Sep-20 02:00N 29°35' W 090°43'0 0.0
2017-Sep-20 01:30N 29°35' W 090°43'1 2.1
2017-Sep-20 01:00N 29°34' W 090°44'3 6.3
2017-Sep-20 00:30N 29°32' W 090°47'4 7.2
2017-Sep-20 00:00N 29°32' W 090°51'  

Dump ship's entire track history